• Join FlightAware (Why Join?)
  • Login
  • US Flag 
07:26AM EDT


 

Airport Tracker/Info


-or-


 

Live Flight TrackerFlight Track Log ✈ SKW5543 ✈ 17-Nov-2013 ✈ KBOI - KSFO

Flight Track Log - Related Links

Times and Time Zones

All times are in EST time to prevent confusion due to time zone crossing. See the SKW5543 flight status page for this flight to view local times or setup timezone preferences in your user account.

Time Position Orientation Groundspeed Altitude Reporting Facility
EST Latitude Longitude Course Direction KTS MPH feet Rate Location/Type
01:32PM 43.5558 -116.1953 232° Southwest 170 196 3,700  Level Salt Lake Center
01:33PM 43.5283 -116.1225 118° Southeast 229 264 5,600 1,980 Climbing Salt Lake Center
01:33PM 43.4869 -116.0800 143° Southeast 246 283 7,500 2,280 Climbing Salt Lake Center
01:34PM 43.4753 -116.0831 191° South 266 306 7,900 2,700 Climbing Salt Lake Center
01:34PM 43.4419 -116.1539 237° Southwest 256 295 10,300 2,280 Climbing Salt Lake Center
01:35PM 43.2195 -116.6220 228° Southwest  Level Estimated
01:35PM 43.3994 -116.2433 237° Southwest 267 307 12,300  Level Salt Lake Center
01:36PM 43.1331 -116.7211 232° Southwest  Level Estimated
01:36PM 43.3486 -116.3419 235° Southwest 298 343 14,100  Level Salt Lake Center
01:37PM 43.0466 -116.8199 232° Southwest  Level Estimated
01:37PM 43.2883 -116.4267 226° Southwest 320 368 15,900  Level Salt Lake Center
01:39PM 43.2214 -116.5183 225° Southwest 327 376 17,500 1,440 Climbing Salt Lake Center
01:40PM 43.1514 -116.6161 226° Southwest 343 395 18,900 1,200 Climbing Salt Lake Center
01:41PM 43.0814 -116.7119 225° Southwest 352 405 20,100 1,200 Climbing Salt Lake Center
01:42PM 43.0108 -116.8086 225° Southwest 358 412 21,400 1,140 Climbing Salt Lake Center
01:43PM 42.9394 -116.9086 226° Southwest 366 421 22,500 1,080 Climbing Salt Lake Center
01:44PM 42.8669 -117.0067 225° Southwest 368 423 23,700 960 Climbing Salt Lake Center
01:45PM 42.7939 -117.1064 225° Southwest 372 428 24,500 900 Climbing Salt Lake Center
01:46PM 42.7044 -117.2267 225° Southwest 377 434 25,600 840 Climbing Salt Lake Center
01:47PM 42.6292 -117.3278 225° Southwest 382 440 26,300 720 Climbing Salt Lake Center
01:48PM 42.5522 -117.4294 224° Southwest 386 444 27,100 600 Climbing Salt Lake Center
01:49PM 42.4761 -117.5322 225° Southwest 386 444 27,600 480 Climbing Salt Lake Center
01:50PM 42.3975 -117.6364 224° Southwest 394 453 28,200 720 Climbing Salt Lake Center
01:51PM 42.3192 -117.7417 225° Southwest 399 459 29,100 600 Climbing Salt Lake Center
01:52PM 42.2419 -117.8431 224° Southwest 390 449 29,500 480 Climbing Salt Lake Center
01:53PM 42.1472 -117.9694 225° Southwest 396 456 30,100 780 Climbing Salt Lake Center
01:54PM 42.0717 -118.0689 224° Southwest 398 458 31,100 720 Climbing Salt Lake Center
01:55PM 41.9978 -118.1642 224° Southwest 388 447 31,600 420 Climbing Salt Lake Center
01:56PM 41.9114 -118.2778 224° Southwest 389 448 32,000 180 Climbing Salt Lake Center
01:57PM 41.8353 -118.3769 224° Southwest 395 455 32,000  Level Salt Lake Center
01:58PM 41.7453 -118.4939 224° Southwest 402 463 32,000  Level Salt Lake Center
01:59PM 41.6656 -118.5939 223° Southwest 408 470 32,000  Level Salt Lake Center
02:01PM 41.5342 -118.7647 224° Southwest 415 478 32,000  Level Oakland Center
02:01PM 41.4939 -118.8164 224° Southwest 414 476 32,000  Level Salt Lake Center
02:02PM 41.4008 -118.9328 223° Southwest 412 474 32,000  Level Salt Lake Center
02:03PM 41.3614 -118.9828 224° Southwest 415 478 32,000  Level Oakland Center
02:03PM 41.3206 -119.0339 223° Southwest 413 475 32,000  Level Salt Lake Center
02:04PM 41.2278 -119.1519 224° Southwest 413 475 32,000  Level Salt Lake Center
02:05PM 41.1483 -119.2519 223° Southwest 413 475 32,000  Level Salt Lake Center
02:06PM 41.0675 -119.3522 223° Southwest 413 475 32,000  Level Salt Lake Center
02:07PM 40.9847 -119.4581 224° Southwest 413 475 32,000  Level Salt Lake Center
02:08PM 40.8828 -119.5828 223° Southwest 416 479 32,000  Level Salt Lake Center
02:09PM 40.7983 -119.6872 223° Southwest 417 480 32,000  Level Salt Lake Center
02:10PM 40.7142 -119.7919 223° Southwest 416 479 32,000  Level Salt Lake Center
02:11PM 40.6294 -119.8950 223° Southwest 416 479 32,000 -360 Level Salt Lake Center
02:13PM 40.5442 -119.9994 223° Southwest 418 481 31,300 -840 Descending Salt Lake Center
02:14PM 40.4561 -120.1081 223° Southwest 429 494 30,300 -660 Descending Salt Lake Center
02:15PM 40.3458 -120.2406 223° Southwest 445 512 30,000 -180 Descending Salt Lake Center
02:16PM 40.2567 -120.3492 223° Southwest 441 507 30,000  Level Salt Lake Center
02:17PM 40.1300 -120.5019 223° Southwest 428 493 30,000  Level Oakland Center
02:18PM 40.0433 -120.6058 223° Southwest 424 488 30,000  Level Oakland Center
02:19PM 39.9642 -120.7019 223° Southwest 424 488 30,000  Level Oakland Center
02:20PM 39.8817 -120.8067 224° Southwest 417 480 30,000  Level Oakland Center
02:21PM 39.8608 -120.9494 259° West 401 461 30,000  Level Oakland Center
02:22PM 39.8417 -121.1186 262° West 395 455 30,000  Level Oakland Center
02:23PM 39.8278 -121.2458 262° West 398 458 30,000  Level Oakland Center
02:24PM 39.8122 -121.3878 262° West 396 456 30,000  Level Oakland Center
02:25PM 39.7947 -121.5583 262° West 397 457 30,000 -480 Level Oakland Center
02:26PM 39.7792 -121.7028 262° West 401 461 29,100 -960 Descending Oakland Center
02:27PM 39.7025 -121.8128 228° Southwest 431 496 28,100 -540 Descending Oakland Center
02:28PM 39.5944 -121.8839 207° Southwest 436 502 28,000 -60 Descending Oakland Center
02:29PM 39.4786 -121.9628 208° Southwest 436 502 28,000  Level Oakland Center
02:30PM 39.3706 -122.0342 207° Southwest 437 503 28,000  Level Oakland Center
02:31PM 39.2636 -122.1050 207° Southwest 434 499 28,000  Level Oakland Center
02:32PM 39.1625 -122.1722 207° Southwest 416 479 28,000  Level Oakland Center
02:33PM 39.0603 -122.2381 207° Southwest 412 474 28,000  Level Oakland Center
02:34PM 38.9558 -122.3053 207° Southwest 419 482 28,000  Level Oakland Center
02:36PM 38.8503 -122.3744 207° Southwest 426 490 28,000 -240 Level Oakland Center
02:37PM 38.7431 -122.4447 207° Southwest 432 497 27,600 -1,260 Descending Oakland Center
02:38PM 38.6289 -122.5175 206° Southwest 435 501 25,500 -2,100 Descending Oakland Center
02:39PM 38.5253 -122.5850 207° Southwest 422 486 23,300 -2,400 Descending Oakland Center
02:40PM 38.4100 -122.6586 207° Southwest 390 449 20,700 -2,400 Descending Oakland Center
02:41PM 38.3128 -122.7200 206° Southwest 392 451 18,500 -2,100 Descending Oakland Center
02:42PM 38.2183 -122.7800 207° Southwest 386 444 16,400 -1,920 Descending Oakland Center
02:43PM 38.1239 -122.8408 207° Southwest 385 443 14,600 -1,740 Descending Oakland Center
02:44PM 38.0244 -122.8067 165° South 390 449 12,900 -1,740 Descending Oakland Center
02:45PM 37.9444 -122.7228 140° Southeast 380 437 11,100 -1,020 Descending Oakland Center
02:46PM 37.8586 -122.6303 140° Southeast 342 394 10,900 -120 Descending Oakland Center
02:47PM 37.8017 -122.5692 140° Southeast 279 321 10,900  Level Oakland Center
02:48PM 37.7475 -122.5106 139° Southeast 262 302 10,900  Level Oakland Center
02:49PM 37.7214 -122.4400 115° Southeast 228 262 11,000 -240 Climbing Oakland Center
02:50PM 37.6956 -122.3725 116° Southeast 216 249 10,500 -840 Descending Oakland Center
02:51PM 37.6833 -122.3167 105° East 216 249 9,600 -1,260 Descending Northern Cal TRACON
02:52PM 37.6500 -122.2500 122° Southeast 221 254 8,400 -1,260 Descending Northern Cal TRACON
02:53PM 37.6333 -122.1833 108° East 201 231 7,100 -1,260 Descending Northern Cal TRACON
02:54PM 37.6000 -122.1500 142° Southeast 189 217 5,900 -1,680 Descending Northern Cal TRACON
02:54PM 37.5833 -122.1833 238° Southwest 201 231 4,000 -1,920 Descending Northern Cal TRACON
02:55PM 37.5833 -122.2667 270° West 192 221 2,300 -1,620 Descending Northern Cal TRACON
02:56PM 37.5872 -122.2869 284° West 193 222 1,600 -1,200 Descending Oakland Center
02:57PM 37.6006 -122.3306 291° West 155 178 500 -720 Descending Oakland Center
02:58PM 37.6178 -122.3697 299° West 149 171 200 -300 Descending Oakland Center